Terminal Aerodrome Forecast
Issued by NWS

Home | Current Version | Previous Version | Text Only | Print | Product List | Glossary On
Versions: 1 2 3 4 5 6 7 8 9 10 11 12 13
000
FTUS45 KRIW 262300
TAFCOD
TAF
KCOD 262320Z 2700/2724 VRB10G15KT P6SM -TSRA SCT040 BKN060CB
     FM270130 VRB06KT P6SM VCSH BKN060
     FM270400 21006KT P6SM SCT070 BKN100
     FM271700 VRB10G15KT P6SM VCSH SCT050 BKN080
     FM272100 VRB12G18KT P6SM VCTS SCT040CB BKN070
      AMD LTD TO CLD VIS AND WIND=

USA.gov is the U.S. government's official web portal to all federal, state and local government web resources and services.